sensor_id;sensor_type;location;lat;lon;timestamp;temperature;humidity
4279;DHT22;2153;47.744;10.580;2023-03-23T00:01:57;7.40;99.90
4279;DHT22;2153;47.744;10.580;2023-03-23T00:04:23;7.40;99.90
4279;DHT22;2153;47.744;10.580;2023-03-23T00:06:52;7.50;99.90
4279;DHT22;2153;47.744;10.580;2023-03-23T00:09:19;7.50;99.90
4279;DHT22;2153;47.744;10.580;2023-03-23T00:11:49;7.40;99.90
4279;DHT22;2153;47.744;10.580;2023-03-23T00:14:17;7.50;99.90
4279;DHT22;2153;47.744;10.580;2023-03-23T00:16:48;7.40;99.90
4279;DHT22;2153;47.744;10.580;2023-03-23T00:19:17;7.40;99.90
4279;DHT22;2153;47.744;10.580;2023-03-23T00:21:45;7.30;99.90
4279;DHT22;2153;47.744;10.580;2023-03-23T00:24:13;7.20;99.90
4279;DHT22;2153;47.744;10.580;2023-03-23T00:26:42;7.20;99.90
4279;DHT22;2153;47.744;10.580;2023-03-23T00:29:13;7.20;99.90
4279;DHT22;2153;47.744;10.580;2023-03-23T00:31:40;7.20;99.90
4279;DHT22;2153;47.744;10.580;2023-03-23T00:34:12;7.10;99.90
4279;DHT22;2153;47.744;10.580;2023-03-23T00:36:46;7.00;99.90
4279;DHT22;2153;47.744;10.580;2023-03-23T00:39:13;7.00;99.90
4279;DHT22;2153;47.744;10.580;2023-03-23T00:41:41;7.00;99.90
4279;DHT22;2153;47.744;10.580;2023-03-23T00:44:08;7.00;99.90
4279;DHT22;2153;47.744;10.580;2023-03-23T00:46:35;6.90;99.90
4279;DHT22;2153;47.744;10.580;2023-03-23T00:49:11;6.80;99.90
4279;DHT22;2153;47.744;10.580;2023-03-23T00:51:39;6.70;99.90
4279;DHT22;2153;47.744;10.580;2023-03-23T00:54:07;6.60;99.90
4279;DHT22;2153;47.744;10.580;2023-03-23T00:56:34;6.50;99.90
4279;DHT22;2153;47.744;10.580;2023-03-23T00:59:01;6.40;99.90
4279;DHT22;2153;47.744;10.580;2023-03-23T01:01:29;6.40;99.90
4279;DHT22;2153;47.744;10.580;2023-03-23T01:03:57;6.40;99.90
4279;DHT22;2153;47.744;10.580;2023-03-23T01:06:26;6.30;99.90
4279;DHT22;2153;47.744;10.580;2023-03-23T01:08:54;6.30;99.90
4279;DHT22;2153;47.744;10.580;2023-03-23T01:11:23;6.20;99.90
4279;DHT22;2153;47.744;10.580;2023-03-23T01:13:50;6.20;99.90
4279;DHT22;2153;47.744;10.580;2023-03-23T01:16:17;6.10;99.90
4279;DHT22;2153;47.744;10.580;2023-03-23T01:18:44;5.90;99.90
4279;DHT22;2153;47.744;10.580;2023-03-23T01:21:13;5.80;99.90
4279;DHT22;2153;47.744;10.580;2023-03-23T01:23:41;5.80;99.90
4279;DHT22;2153;47.744;10.580;2023-03-23T01:26:10;5.80;99.90
4279;DHT22;2153;47.744;10.580;2023-03-23T01:28:39;5.80;99.90
4279;DHT22;2153;47.744;10.580;2023-03-23T01:31:08;5.70;99.90
4279;DHT22;2153;47.744;10.580;2023-03-23T01:33:35;5.70;99.90
4279;DHT22;2153;47.744;10.580;2023-03-23T01:36:03;5.70;99.90
4279;DHT22;2153;47.744;10.580;2023-03-23T01:38:31;5.70;99.90
4279;DHT22;2153;47.744;10.580;2023-03-23T01:40:58;5.60;99.90
4279;DHT22;2153;47.744;10.580;2023-03-23T01:43:25;5.60;99.90
4279;DHT22;2153;47.744;10.580;2023-03-23T01:45:53;5.60;99.90
4279;DHT22;2153;47.744;10.580;2023-03-23T01:48:23;5.50;99.90
4279;DHT22;2153;47.744;10.580;2023-03-23T01:50:54;5.50;99.90
4279;DHT22;2153;47.744;10.580;2023-03-23T01:53:26;5.40;99.90
4279;DHT22;2153;47.744;10.580;2023-03-23T01:55:57;5.40;99.90
4279;DHT22;2153;47.744;10.580;2023-03-23T01:58:27;5.40;99.90
4279;DHT22;2153;47.744;10.580;2023-03-23T02:00:57;5.30;99.90
4279;DHT22;2153;47.744;10.580;2023-03-23T02:03:27;5.30;99.90
4279;DHT22;2153;47.744;10.580;2023-03-23T02:05:55;5.40;99.90
4279;DHT22;2153;47.744;10.580;2023-03-23T02:08:24;5.30;99.90
4279;DHT22;2153;47.744;10.580;2023-03-23T02:10:52;5.30;99.90
4279;DHT22;2153;47.744;10.580;2023-03-23T02:13:19;5.20;99.90
4279;DHT22;2153;47.744;10.580;2023-03-23T02:15:56;5.10;99.90
4279;DHT22;2153;47.744;10.580;2023-03-23T02:18:35;5.10;99.90
4279;DHT22;2153;47.744;10.580;2023-03-23T02:21:39;5.20;99.90
4279;DHT22;2153;47.744;10.580;2023-03-23T02:24:30;5.30;99.90
4279;DHT22;2153;47.744;10.580;2023-03-23T02:27:07;5.50;99.90
4279;DHT22;2153;47.744;10.580;2023-03-23T02:30:11;5.40;99.90
4279;DHT22;2153;47.744;10.580;2023-03-23T02:35:37;5.20;99.90
4279;DHT22;2153;47.744;10.580;2023-03-23T02:38:08;5.10;99.90
4279;DHT22;2153;47.744;10.580;2023-03-23T02:40:40;5.00;99.90
4279;DHT22;2153;47.744;10.580;2023-03-23T02:43:11;4.90;99.90
4279;DHT22;2153;47.744;10.580;2023-03-23T02:45:41;4.80;99.90
4279;DHT22;2153;47.744;10.580;2023-03-23T02:48:09;4.80;99.90
4279;DHT22;2153;47.744;10.580;2023-03-23T02:50:40;4.80;99.90
4279;DHT22;2153;47.744;10.580;2023-03-23T02:53:10;4.90;99.90
4279;DHT22;2153;47.744;10.580;2023-03-23T02:55:41;4.90;99.90
4279;DHT22;2153;47.744;10.580;2023-03-23T02:58:08;5.00;99.90
4279;DHT22;2153;47.744;10.580;2023-03-23T03:00:35;5.10;99.90
4279;DHT22;2153;47.744;10.580;2023-03-23T03:03:04;5.10;99.90
4279;DHT22;2153;47.744;10.580;2023-03-23T03:05:38;5.10;99.90
4279;DHT22;2153;47.744;10.580;2023-03-23T03:08:12;5.10;99.90
4279;DHT22;2153;47.744;10.580;2023-03-23T03:10:48;5.10;99.90
4279;DHT22;2153;47.744;10.580;2023-03-23T03:13:27;5.10;99.90
4279;DHT22;2153;47.744;10.580;2023-03-23T03:16:00;5.10;99.90
4279;DHT22;2153;47.744;10.580;2023-03-23T03:18:31;5.00;99.90
4279;DHT22;2153;47.744;10.580;2023-03-23T03:21:04;4.90;99.90
4279;DHT22;2153;47.744;10.580;2023-03-23T03:23:33;4.90;99.90
4279;DHT22;2153;47.744;10.580;2023-03-23T03:26:02;4.90;99.90
4279;DHT22;2153;47.744;10.580;2023-03-23T03:28:31;4.90;99.90
4279;DHT22;2153;47.744;10.580;2023-03-23T03:31:02;4.70;99.90
4279;DHT22;2153;47.744;10.580;2023-03-23T03:33:30;4.50;99.90
4279;DHT22;2153;47.744;10.580;2023-03-23T03:36:02;4.50;99.90
4279;DHT22;2153;47.744;10.580;2023-03-23T03:38:41;4.50;99.90
4279;DHT22;2153;47.744;10.580;2023-03-23T03:41:08;4.50;99.90
4279;DHT22;2153;47.744;10.580;2023-03-23T03:43:35;4.60;99.90
4279;DHT22;2153;47.744;10.580;2023-03-23T03:46:01;4.50;99.90
4279;DHT22;2153;47.744;10.580;2023-03-23T03:48:28;4.50;99.90
4279;DHT22;2153;47.744;10.580;2023-03-23T03:50:55;4.60;99.90
4279;DHT22;2153;47.744;10.580;2023-03-23T03:53:24;4.70;99.90
4279;DHT22;2153;47.744;10.580;2023-03-23T03:55:51;4.90;99.90
4279;DHT22;2153;47.744;10.580;2023-03-23T03:58:21;5.00;99.90
4279;DHT22;2153;47.744;10.580;2023-03-23T04:00:48;5.10;99.90
4279;DHT22;2153;47.744;10.580;2023-03-23T04:03:15;5.20;99.90
4279;DHT22;2153;47.744;10.580;2023-03-23T04:05:41;5.20;99.90
4279;DHT22;2153;47.744;10.580;2023-03-23T04:08:10;5.30;99.90
4279;DHT22;2153;47.744;10.580;2023-03-23T04:10:38;5.30;99.90
4279;DHT22;2153;47.744;10.580;2023-03-23T04:13:06;5.30;99.90
4279;DHT22;2153;47.744;10.580;2023-03-23T04:15:32;5.40;99.90
4279;DHT22;2153;47.744;10.580;2023-03-23T04:17:59;5.40;99.90
4279;DHT22;2153;47.744;10.580;2023-03-23T04:20:26;5.50;99.90
4279;DHT22;2153;47.744;10.580;2023-03-23T04:22:53;5.50;99.90
4279;DHT22;2153;47.744;10.580;2023-03-23T04:25:21;5.60;99.90
4279;DHT22;2153;47.744;10.580;2023-03-23T04:27:50;5.70;99.90
4279;DHT22;2153;47.744;10.580;2023-03-23T04:30:19;5.80;99.90
4279;DHT22;2153;47.744;10.580;2023-03-23T04:32:47;5.80;99.90
4279;DHT22;2153;47.744;10.580;2023-03-23T04:35:16;5.80;99.90
4279;DHT22;2153;47.744;10.580;2023-03-23T04:37:44;5.80;99.90
4279;DHT22;2153;47.744;10.580;2023-03-23T04:40:12;5.80;99.90
4279;DHT22;2153;47.744;10.580;2023-03-23T04:42:41;5.80;99.90
4279;DHT22;2153;47.744;10.580;2023-03-23T04:45:13;5.80;99.90
4279;DHT22;2153;47.744;10.580;2023-03-23T04:47:41;5.90;99.90
4279;DHT22;2153;47.744;10.580;2023-03-23T04:50:20;5.90;99.90
4279;DHT22;2153;47.744;10.580;2023-03-23T04:52:49;6.00;99.90
4279;DHT22;2153;47.744;10.580;2023-03-23T04:55:17;6.00;99.90
4279;DHT22;2153;47.744;10.580;2023-03-23T04:57:44;6.00;99.90
4279;DHT22;2153;47.744;10.580;2023-03-23T05:00:14;5.90;99.90
4279;DHT22;2153;47.744;10.580;2023-03-23T05:02:42;5.80;99.90
4279;DHT22;2153;47.744;10.580;2023-03-23T05:05:11;5.60;99.90
4279;DHT22;2153;47.744;10.580;2023-03-23T05:07:38;5.50;99.90
4279;DHT22;2153;47.744;10.580;2023-03-23T05:10:07;5.50;99.90
4279;DHT22;2153;47.744;10.580;2023-03-23T05:12:34;5.60;99.90
4279;DHT22;2153;47.744;10.580;2023-03-23T05:15:02;5.60;99.90
4279;DHT22;2153;47.744;10.580;2023-03-23T05:17:30;5.60;99.90
4279;DHT22;2153;47.744;10.580;2023-03-23T05:19:58;5.60;99.90
4279;DHT22;2153;47.744;10.580;2023-03-23T05:22:26;5.70;99.90
4279;DHT22;2153;47.744;10.580;2023-03-23T05:24:53;5.80;99.90
4279;DHT22;2153;47.744;10.580;2023-03-23T05:27:20;6.00;99.90
4279;DHT22;2153;47.744;10.580;2023-03-23T05:29:47;6.10;99.90
4279;DHT22;2153;47.744;10.580;2023-03-23T05:32:15;6.30;99.90
4279;DHT22;2153;47.744;10.580;2023-03-23T05:34:43;6.40;99.90
4279;DHT22;2153;47.744;10.580;2023-03-23T05:37:12;6.50;99.90
4279;DHT22;2153;47.744;10.580;2023-03-23T05:39:39;6.60;99.90
4279;DHT22;2153;47.744;10.580;2023-03-23T05:42:06;6.60;99.90
4279;DHT22;2153;47.744;10.580;2023-03-23T05:44:34;6.70;99.90
4279;DHT22;2153;47.744;10.580;2023-03-23T05:47:00;6.70;99.90
4279;DHT22;2153;47.744;10.580;2023-03-23T05:49:28;6.80;99.90
4279;DHT22;2153;47.744;10.580;2023-03-23T05:51:56;6.90;99.90
4279;DHT22;2153;47.744;10.580;2023-03-23T05:54:24;7.00;99.90
4279;DHT22;2153;47.744;10.580;2023-03-23T05:56:51;7.10;99.90
4279;DHT22;2153;47.744;10.580;2023-03-23T05:59:18;7.30;99.90
4279;DHT22;2153;47.744;10.580;2023-03-23T06:01:44;7.40;99.90
4279;DHT22;2153;47.744;10.580;2023-03-23T06:04:11;7.40;99.90
4279;DHT22;2153;47.744;10.580;2023-03-23T06:06:39;7.50;99.90
4279;DHT22;2153;47.744;10.580;2023-03-23T06:09:08;7.60;99.90
4279;DHT22;2153;47.744;10.580;2023-03-23T06:11:35;7.60;99.90
4279;DHT22;2153;47.744;10.580;2023-03-23T06:14:02;7.60;99.90
4279;DHT22;2153;47.744;10.580;2023-03-23T06:16:29;7.70;99.90
4279;DHT22;2153;47.744;10.580;2023-03-23T06:18:55;7.60;99.90
4279;DHT22;2153;47.744;10.580;2023-03-23T06:21:23;7.70;99.90
4279;DHT22;2153;47.744;10.580;2023-03-23T06:23:49;7.80;99.90
4279;DHT22;2153;47.744;10.580;2023-03-23T06:26:19;7.80;99.90
4279;DHT22;2153;47.744;10.580;2023-03-23T06:28:46;7.80;99.90
4279;DHT22;2153;47.744;10.580;2023-03-23T06:31:14;7.90;99.90
4279;DHT22;2153;47.744;10.580;2023-03-23T06:33:45;8.20;99.90
4279;DHT22;2153;47.744;10.580;2023-03-23T06:36:12;8.20;99.90
4279;DHT22;2153;47.744;10.580;2023-03-23T06:38:39;8.40;99.90
4279;DHT22;2153;47.744;10.580;2023-03-23T06:41:06;8.50;99.90
4279;DHT22;2153;47.744;10.580;2023-03-23T06:43:35;8.50;99.90
4279;DHT22;2153;47.744;10.580;2023-03-23T06:46:04;8.60;99.90
4279;DHT22;2153;47.744;10.580;2023-03-23T06:48:31;8.60;99.90
4279;DHT22;2153;47.744;10.580;2023-03-23T06:50:58;8.70;99.90
4279;DHT22;2153;47.744;10.580;2023-03-23T06:53:25;8.70;99.90
4279;DHT22;2153;47.744;10.580;2023-03-23T06:55:52;8.80;99.90
4279;DHT22;2153;47.744;10.580;2023-03-23T06:58:18;8.80;99.90
4279;DHT22;2153;47.744;10.580;2023-03-23T07:00:47;9.00;99.90
4279;DHT22;2153;47.744;10.580;2023-03-23T07:03:14;9.20;99.90
4279;DHT22;2153;47.744;10.580;2023-03-23T07:05:41;9.20;99.90
4279;DHT22;2153;47.744;10.580;2023-03-23T07:08:08;9.40;99.90
4279;DHT22;2153;47.744;10.580;2023-03-23T07:10:35;9.40;99.90
4279;DHT22;2153;47.744;10.580;2023-03-23T07:13:01;9.60;99.90
4279;DHT22;2153;47.744;10.580;2023-03-23T07:15:28;9.80;99.90
4279;DHT22;2153;47.744;10.580;2023-03-23T07:17:56;10.00;99.90
4279;DHT22;2153;47.744;10.580;2023-03-23T07:20:23;10.10;99.90
4279;DHT22;2153;47.744;10.580;2023-03-23T07:22:50;10.30;99.90
4279;DHT22;2153;47.744;10.580;2023-03-23T07:25:17;10.40;99.90
4279;DHT22;2153;47.744;10.580;2023-03-23T07:27:44;10.50;99.90
4279;DHT22;2153;47.744;10.580;2023-03-23T07:30:12;10.60;99.90
4279;DHT22;2153;47.744;10.580;2023-03-23T07:32:39;10.80;99.90
4279;DHT22;2153;47.744;10.580;2023-03-23T07:35:08;10.90;99.90
4279;DHT22;2153;47.744;10.580;2023-03-23T07:37:35;11.00;99.90
4279;DHT22;2153;47.744;10.580;2023-03-23T07:40:02;11.20;99.90
4279;DHT22;2153;47.744;10.580;2023-03-23T07:42:40;11.30;99.90
4279;DHT22;2153;47.744;10.580;2023-03-23T07:45:07;11.40;99.90
4279;DHT22;2153;47.744;10.580;2023-03-23T07:47:34;11.50;99.90
4279;DHT22;2153;47.744;10.580;2023-03-23T07:50:01;11.50;99.90
4279;DHT22;2153;47.744;10.580;2023-03-23T07:52:30;11.50;99.90
4279;DHT22;2153;47.744;10.580;2023-03-23T07:54:56;11.60;99.90
4279;DHT22;2153;47.744;10.580;2023-03-23T07:57:23;11.70;99.90
4279;DHT22;2153;47.744;10.580;2023-03-23T07:59:50;11.70;99.90
4279;DHT22;2153;47.744;10.580;2023-03-23T08:02:17;11.90;99.90
4279;DHT22;2153;47.744;10.580;2023-03-23T08:04:44;11.90;99.90
4279;DHT22;2153;47.744;10.580;2023-03-23T08:07:13;12.10;99.90
4279;DHT22;2153;47.744;10.580;2023-03-23T08:09:43;12.20;99.90
4279;DHT22;2153;47.744;10.580;2023-03-23T08:12:10;12.30;99.90
4279;DHT22;2153;47.744;10.580;2023-03-23T08:14:36;12.40;99.90
4279;DHT22;2153;47.744;10.580;2023-03-23T08:17:04;12.50;99.90
4279;DHT22;2153;47.744;10.580;2023-03-23T08:19:30;12.60;99.90
4279;DHT22;2153;47.744;10.580;2023-03-23T08:22:02;12.70;99.90
4279;DHT22;2153;47.744;10.580;2023-03-23T08:24:29;12.80;99.90
4279;DHT22;2153;47.744;10.580;2023-03-23T08:26:57;12.90;99.90
4279;DHT22;2153;47.744;10.580;2023-03-23T08:29:24;13.00;99.90
4279;DHT22;2153;47.744;10.580;2023-03-23T08:31:51;13.20;99.90
4279;DHT22;2153;47.744;10.580;2023-03-23T08:34:17;13.40;99.90
4279;DHT22;2153;47.744;10.580;2023-03-23T08:36:44;13.60;99.90
4279;DHT22;2153;47.744;10.580;2023-03-23T08:39:12;13.60;99.90
4279;DHT22;2153;47.744;10.580;2023-03-23T08:41:39;13.60;99.90
4279;DHT22;2153;47.744;10.580;2023-03-23T08:44:08;13.80;99.90
4279;DHT22;2153;47.744;10.580;2023-03-23T08:46:34;13.90;99.90
4279;DHT22;2153;47.744;10.580;2023-03-23T08:49:01;14.00;99.90
4279;DHT22;2153;47.744;10.580;2023-03-23T08:51:28;14.10;99.90
4279;DHT22;2153;47.744;10.580;2023-03-23T08:53:55;14.20;99.90
4279;DHT22;2153;47.744;10.580;2023-03-23T08:56:21;14.40;99.90
4279;DHT22;2153;47.744;10.580;2023-03-23T08:58:48;14.50;99.90
4279;DHT22;2153;47.744;10.580;2023-03-23T09:01:16;14.50;99.90
4279;DHT22;2153;47.744;10.580;2023-03-23T09:03:44;14.60;99.90
4279;DHT22;2153;47.744;10.580;2023-03-23T09:06:10;14.60;99.90
4279;DHT22;2153;47.744;10.580;2023-03-23T09:08:38;14.60;99.90
4279;DHT22;2153;47.744;10.580;2023-03-23T09:11:07;14.60;99.90
4279;DHT22;2153;47.744;10.580;2023-03-23T09:13:35;14.80;99.90
4279;DHT22;2153;47.744;10.580;2023-03-23T09:16:03;15.10;99.90
4279;DHT22;2153;47.744;10.580;2023-03-23T09:18:32;15.40;99.90
4279;DHT22;2153;47.744;10.580;2023-03-23T09:21:01;15.50;99.90
4279;DHT22;2153;47.744;10.580;2023-03-23T09:23:29;15.70;99.90
4279;DHT22;2153;47.744;10.580;2023-03-23T09:25:56;15.70;99.90
4279;DHT22;2153;47.744;10.580;2023-03-23T09:28:22;15.80;99.90
4279;DHT22;2153;47.744;10.580;2023-03-23T09:30:49;15.90;99.90
4279;DHT22;2153;47.744;10.580;2023-03-23T09:33:17;16.10;99.90
4279;DHT22;2153;47.744;10.580;2023-03-23T09:35:45;16.20;99.90
4279;DHT22;2153;47.744;10.580;2023-03-23T09:38:11;16.40;99.90
4279;DHT22;2153;47.744;10.580;2023-03-23T09:40:45;16.80;99.90
4279;DHT22;2153;47.744;10.580;2023-03-23T09:43:34;17.10;98.70
4279;DHT22;2153;47.744;10.580;2023-03-23T09:46:14;17.20;93.80
4279;DHT22;2153;47.744;10.580;2023-03-23T09:48:49;17.20;93.20
4279;DHT22;2153;47.744;10.580;2023-03-23T09:51:27;17.30;99.40
4279;DHT22;2153;47.744;10.580;2023-03-23T09:53:59;17.40;99.90
4279;DHT22;2153;47.744;10.580;2023-03-23T09:56:30;17.30;99.80
4279;DHT22;2153;47.744;10.580;2023-03-23T09:59:00;17.00;99.60
4279;DHT22;2153;47.744;10.580;2023-03-23T10:01:32;17.00;99.90
4279;DHT22;2153;47.744;10.580;2023-03-23T10:04:12;16.90;99.90
4279;DHT22;2153;47.744;10.580;2023-03-23T10:06:42;16.80;99.90
4279;DHT22;2153;47.744;10.580;2023-03-23T10:09:14;16.70;99.90
4279;DHT22;2153;47.744;10.580;2023-03-23T10:11:50;16.60;99.90
4279;DHT22;2153;47.744;10.580;2023-03-23T10:14:28;16.60;99.90
4279;DHT22;2153;47.744;10.580;2023-03-23T10:17:03;16.60;99.90
4279;DHT22;2153;47.744;10.580;2023-03-23T10:19:39;16.60;99.90
4279;DHT22;2153;47.744;10.580;2023-03-23T10:22:11;16.70;99.90
4279;DHT22;2153;47.744;10.580;2023-03-23T10:24:42;16.70;99.90
4279;DHT22;2153;47.744;10.580;2023-03-23T10:27:18;16.60;98.60
4279;DHT22;2153;47.744;10.580;2023-03-23T10:29:49;16.80;94.00
4279;DHT22;2153;47.744;10.580;2023-03-23T10:32:22;17.00;99.00
4279;DHT22;2153;47.744;10.580;2023-03-23T10:34:52;17.20;92.50
4279;DHT22;2153;47.744;10.580;2023-03-23T10:37:23;17.50;99.90
4279;DHT22;2153;47.744;10.580;2023-03-23T10:39:52;17.60;99.90
4279;DHT22;2153;47.744;10.580;2023-03-23T10:42:28;17.60;93.10
4279;DHT22;2153;47.744;10.580;2023-03-23T10:44:59;17.70;94.50
4279;DHT22;2153;47.744;10.580;2023-03-23T10:47:26;17.90;97.10
4279;DHT22;2153;47.744;10.580;2023-03-23T10:49:56;17.90;92.40
4279;DHT22;2153;47.744;10.580;2023-03-23T10:52:30;17.90;88.40
4279;DHT22;2153;47.744;10.580;2023-03-23T10:55:02;17.70;86.10
4279;DHT22;2153;47.744;10.580;2023-03-23T10:57:32;17.90;95.30
4279;DHT22;2153;47.744;10.580;2023-03-23T11:00:01;18.00;77.30
4279;DHT22;2153;47.744;10.580;2023-03-23T11:02:31;18.50;60.10
4279;DHT22;2153;47.744;10.580;2023-03-23T11:05:01;18.60;52.40
4279;DHT22;2153;47.744;10.580;2023-03-23T11:07:32;18.90;46.60
4279;DHT22;2153;47.744;10.580;2023-03-23T11:10:07;18.70;15.90
4279;DHT22;2153;47.744;10.580;2023-03-23T11:12:35;18.40;9.10
4279;DHT22;2153;47.744;10.580;2023-03-23T11:15:22;18.00;18.20
4279;DHT22;2153;47.744;10.580;2023-03-23T11:17:56;18.20;34.10
4279;DHT22;2153;47.744;10.580;2023-03-23T11:20:24;18.90;29.20
4279;DHT22;2153;47.744;10.580;2023-03-23T11:22:53;19.60;5.60
4279;DHT22;2153;47.744;10.580;2023-03-23T11:25:20;20.10;1.00
4279;DHT22;2153;47.744;10.580;2023-03-23T11:27:48;20.20;1.00
4279;DHT22;2153;47.744;10.580;2023-03-23T11:30:22;19.80;1.00
4279;DHT22;2153;47.744;10.580;2023-03-23T11:32:50;19.60;9.20
4279;DHT22;2153;47.744;10.580;2023-03-23T11:35:20;19.20;1.00
4279;DHT22;2153;47.744;10.580;2023-03-23T11:37:49;19.10;3.80
4279;DHT22;2153;47.744;10.580;2023-03-23T11:40:20;19.40;17.30
4279;DHT22;2153;47.744;10.580;2023-03-23T11:42:49;19.60;8.10
4279;DHT22;2153;47.744;10.580;2023-03-23T11:45:20;19.60;4.00
4279;DHT22;2153;47.744;10.580;2023-03-23T11:47:59;19.50;1.00
4279;DHT22;2153;47.744;10.580;2023-03-23T11:50:30;19.60;1.00
4279;DHT22;2153;47.744;10.580;2023-03-23T11:53:01;19.70;1.00
4279;DHT22;2153;47.744;10.580;2023-03-23T11:55:34;19.80;5.00
4279;DHT22;2153;47.744;10.580;2023-03-23T11:58:09;19.90;1.00
4279;DHT22;2153;47.744;10.580;2023-03-23T12:00:40;19.70;1.00
4279;DHT22;2153;47.744;10.580;2023-03-23T12:03:13;19.70;4.70
4279;DHT22;2153;47.744;10.580;2023-03-23T12:05:46;19.90;1.00
4279;DHT22;2153;47.744;10.580;2023-03-23T12:08:28;19.80;1.00
4279;DHT22;2153;47.744;10.580;2023-03-23T12:11:03;19.80;1.00
4279;DHT22;2153;47.744;10.580;2023-03-23T12:13:43;20.00;1.00
4279;DHT22;2153;47.744;10.580;2023-03-23T12:16:25;20.20;1.00
4279;DHT22;2153;47.744;10.580;2023-03-23T12:19:01;20.10;1.00
4279;DHT22;2153;47.744;10.580;2023-03-23T12:21:48;19.90;1.00
4279;DHT22;2153;47.744;10.580;2023-03-23T12:24:24;19.70;1.00
4279;DHT22;2153;47.744;10.580;2023-03-23T12:27:01;19.30;1.00
4279;DHT22;2153;47.744;10.580;2023-03-23T12:29:42;19.00;1.00
4279;DHT22;2153;47.744;10.580;2023-03-23T12:32:27;18.70;1.00
4279;DHT22;2153;47.744;10.580;2023-03-23T12:35:03;18.30;1.00
4279;DHT22;2153;47.744;10.580;2023-03-23T12:37:46;18.30;1.00
4279;DHT22;2153;47.744;10.580;2023-03-23T12:40:28;18.50;1.00
4279;DHT22;2153;47.744;10.580;2023-03-23T12:43:01;18.60;4.00
4279;DHT22;2153;47.744;10.580;2023-03-23T12:48:25;19.00;5.50
4279;DHT22;2153;47.744;10.580;2023-03-23T12:51:07;19.40;2.40
4279;DHT22;2153;47.744;10.580;2023-03-23T12:53:41;19.40;2.10
4279;DHT22;2153;47.744;10.580;2023-03-23T12:56:14;19.30;1.00
4279;DHT22;2153;47.744;10.580;2023-03-23T12:58:45;19.10;8.90
4279;DHT22;2153;47.744;10.580;2023-03-23T13:01:16;19.40;13.20
4279;DHT22;2153;47.744;10.580;2023-03-23T13:03:50;19.60;7.40
4279;DHT22;2153;47.744;10.580;2023-03-23T13:06:23;19.70;6.80
4279;DHT22;2153;47.744;10.580;2023-03-23T13:08:54;19.50;2.10
4279;DHT22;2153;47.744;10.580;2023-03-23T13:11:25;19.10;1.00
4279;DHT22;2153;47.744;10.580;2023-03-23T13:13:56;19.10;14.10
4279;DHT22;2153;47.744;10.580;2023-03-23T13:16:32;19.20;27.60
4279;DHT22;2153;47.744;10.580;2023-03-23T13:19:06;19.10;22.10
4279;DHT22;2153;47.744;10.580;2023-03-23T13:21:38;19.00;20.00
4279;DHT22;2153;47.744;10.580;2023-03-23T13:24:12;18.90;14.50
4279;DHT22;2153;47.744;10.580;2023-03-23T13:26:42;18.40;22.30
4279;DHT22;2153;47.744;10.580;2023-03-23T13:29:13;18.50;41.80
4279;DHT22;2153;47.744;10.580;2023-03-23T13:31:43;18.90;41.20
4279;DHT22;2153;47.744;10.580;2023-03-23T13:34:16;19.20;25.60
4279;DHT22;2153;47.744;10.580;2023-03-23T13:36:55;19.30;16.70
4279;DHT22;2153;47.744;10.580;2023-03-23T13:39:25;19.00;23.50
4279;DHT22;2153;47.744;10.580;2023-03-23T13:42:02;19.20;35.40
4279;DHT22;2153;47.744;10.580;2023-03-23T13:44:42;19.30;35.40
4279;DHT22;2153;47.744;10.580;2023-03-23T13:47:25;19.30;31.90
4279;DHT22;2153;47.744;10.580;2023-03-23T13:49:55;19.20;29.20
4279;DHT22;2153;47.744;10.580;2023-03-23T13:52:24;19.30;35.10
4279;DHT22;2153;47.744;10.580;2023-03-23T13:55:12;19.30;42.10
4279;DHT22;2153;47.744;10.580;2023-03-23T13:57:50;19.40;40.20
4279;DHT22;2153;47.744;10.580;2023-03-23T14:00:48;19.20;33.60
4279;DHT22;2153;47.744;10.580;2023-03-23T14:03:18;18.70;49.20
4279;DHT22;2153;47.744;10.580;2023-03-23T14:05:48;18.50;62.60
4279;DHT22;2153;47.744;10.580;2023-03-23T14:08:22;18.20;63.10
4279;DHT22;2153;47.744;10.580;2023-03-23T14:10:54;18.20;80.90
4279;DHT22;2153;47.744;10.580;2023-03-23T14:13:25;18.10;84.40
4279;DHT22;2153;47.744;10.580;2023-03-23T14:15:59;17.90;85.50
4279;DHT22;2153;47.744;10.580;2023-03-23T14:18:30;17.70;78.90
4279;DHT22;2153;47.744;10.580;2023-03-23T14:20:57;17.70;75.10
4279;DHT22;2153;47.744;10.580;2023-03-23T14:23:25;17.60;79.60
4279;DHT22;2153;47.744;10.580;2023-03-23T14:25:58;17.50;58.70
4279;DHT22;2153;47.744;10.580;2023-03-23T14:28:31;17.40;65.40
4279;DHT22;2153;47.744;10.580;2023-03-23T14:30:59;17.30;87.30
4279;DHT22;2153;47.744;10.580;2023-03-23T14:33:26;17.10;83.90
4279;DHT22;2153;47.744;10.580;2023-03-23T14:35:56;16.80;78.50
4279;DHT22;2153;47.744;10.580;2023-03-23T14:38:23;16.60;81.80
4279;DHT22;2153;47.744;10.580;2023-03-23T14:41:00;16.50;86.80
4279;DHT22;2153;47.744;10.580;2023-03-23T14:43:29;16.30;99.90
4279;DHT22;2153;47.744;10.580;2023-03-23T14:46:00;16.00;99.90
4279;DHT22;2153;47.744;10.580;2023-03-23T14:48:27;15.70;99.90
4279;DHT22;2153;47.744;10.580;2023-03-23T14:50:57;15.50;99.90
4279;DHT22;2153;47.744;10.580;2023-03-23T14:53:29;15.30;99.90
4279;DHT22;2153;47.744;10.580;2023-03-23T14:56:00;15.30;99.90
4279;DHT22;2153;47.744;10.580;2023-03-23T14:58:28;15.20;99.90
4279;DHT22;2153;47.744;10.580;2023-03-23T15:01:00;15.20;99.90
4279;DHT22;2153;47.744;10.580;2023-03-23T15:03:33;15.30;99.90
4279;DHT22;2153;47.744;10.580;2023-03-23T15:06:04;15.20;99.90
4279;DHT22;2153;47.744;10.580;2023-03-23T15:08:33;15.20;99.90
4279;DHT22;2153;47.744;10.580;2023-03-23T15:11:06;15.20;99.90
4279;DHT22;2153;47.744;10.580;2023-03-23T15:13:34;15.20;99.90
4279;DHT22;2153;47.744;10.580;2023-03-23T15:16:05;15.30;99.90
4279;DHT22;2153;47.744;10.580;2023-03-23T15:18:35;15.30;99.90
4279;DHT22;2153;47.744;10.580;2023-03-23T15:21:11;15.30;99.90
4279;DHT22;2153;47.744;10.580;2023-03-23T15:23:42;15.20;99.90
4279;DHT22;2153;47.744;10.580;2023-03-23T15:29:16;15.20;99.90
4279;DHT22;2153;47.744;10.580;2023-03-23T15:31:46;15.10;99.90
4279;DHT22;2153;47.744;10.580;2023-03-23T15:34:23;15.00;99.90
4279;DHT22;2153;47.744;10.580;2023-03-23T15:36:54;15.00;99.90
4279;DHT22;2153;47.744;10.580;2023-03-23T15:39:22;14.90;99.90
4279;DHT22;2153;47.744;10.580;2023-03-23T15:41:50;14.90;99.90
4279;DHT22;2153;47.744;10.580;2023-03-23T15:44:24;14.80;99.90
4279;DHT22;2153;47.744;10.580;2023-03-23T15:46:53;14.70;99.90
4279;DHT22;2153;47.744;10.580;2023-03-23T15:49:27;14.70;99.90
4279;DHT22;2153;47.744;10.580;2023-03-23T15:51:54;14.60;99.90
4279;DHT22;2153;47.744;10.580;2023-03-23T15:54:21;14.60;99.90
4279;DHT22;2153;47.744;10.580;2023-03-23T15:56:47;14.50;99.90
4279;DHT22;2153;47.744;10.580;2023-03-23T15:59:15;14.50;99.90
4279;DHT22;2153;47.744;10.580;2023-03-23T16:01:42;14.40;99.90
4279;DHT22;2153;47.744;10.580;2023-03-23T16:04:13;14.30;99.90
4279;DHT22;2153;47.744;10.580;2023-03-23T16:06:40;14.30;99.90
4279;DHT22;2153;47.744;10.580;2023-03-23T16:09:12;14.20;99.90
4279;DHT22;2153;47.744;10.580;2023-03-23T16:11:39;14.10;99.90
4279;DHT22;2153;47.744;10.580;2023-03-23T16:14:06;14.10;99.90
4279;DHT22;2153;47.744;10.580;2023-03-23T16:16:35;14.00;99.90
4279;DHT22;2153;47.744;10.580;2023-03-23T16:19:03;13.90;99.90
4279;DHT22;2153;47.744;10.580;2023-03-23T16:21:32;13.90;99.90
4279;DHT22;2153;47.744;10.580;2023-03-23T16:23:59;13.70;99.90